< Typhoon 195421 1954 Season Typhoon 195423 >
Typhoon 195422 (TILDA)
General InformationTrack Information on Google Maps || Disaster Info.ResourceGoogle EarthGE AnimationAtom FeedGeoJSON
Detalied Best Track (Time Zone = UTC)
Year Month Day Hour Lat. Long. Pressure (hPa) Wind (kt) Class Image Chart
1954 11 24 06 12.0 150.4 1004 0 2 -- Chart
1954 11 24 12 12.0 150.0 1004 0 2 -- Chart
1954 11 24 18 12.0 149.5 1001 0 2 -- Chart
1954 11 25 00 12.0 149.2 1001 0 2 -- Chart
1954 11 25 06 11.7 148.8 999 0 9 -- Chart
1954 11 25 12 11.6 148.4 999 0 9 -- Chart
1954 11 25 18 11.8 147.2 999 0 9 -- Chart
1954 11 26 00 12.0 146.3 993 0 9 -- Chart
1954 11 26 06 12.2 145.5 993 0 9 -- Chart
1954 11 26 12 12.7 144.7 992 0 9 -- Chart
1954 11 26 18 12.4 143.5 990 0 9 -- Chart
1954 11 27 00 12.2 142.0 980 0 9 -- Chart
1954 11 27 06 12.0 140.6 970 0 9 -- Chart
1954 11 27 12 11.8 138.8 965 0 9 -- Chart
1954 11 27 18 11.6 136.9 955 0 9 -- Chart
1954 11 28 00 11.4 135.0 945 0 9 -- Chart
1954 11 28 06 11.4 133.6 940 0 9 -- Chart
1954 11 28 12 11.6 131.7 960 0 9 -- Chart
1954 11 28 18 11.3 129.6 970 0 9 -- Chart
1954 11 29 00 10.9 127.4 980 0 9 -- Chart
1954 11 29 06 11.0 125.7 980 0 9 -- Chart
1954 11 29 12 11.2 123.6 990 0 9 -- Chart
1954 11 29 18 11.5 121.4 995 0 9 -- Chart
1954 11 30 00 11.8 119.0 995 0 9 -- Chart
1954 11 30 06 10.8 117.0 1000 0 9 -- Chart
1954 11 30 12 10.8 115.4 1000 0 9 -- Chart
1954 11 30 18 10.8 113.6 1000 0 9 -- Chart
1954 12 1 00 10.8 112.2 1000 0 9 -- Chart
1954 12 1 06 10.9 109.5 1000 0 9 -- Chart
1954 12 1 12 10.9 109.5 1000 0 9 -- Chart
1954 12 1 18 11.1 108.8 1000 0 9 -- Chart
1954 12 2 00 11.5 108.4 1000 0 9 -- Chart
Japan Meteorological Agency Best Track Data | Correction Date : 1989-06-01
< Typhoon 195421 1954 Season Typhoon 195423 >

Help